createdAt,value
2023-04-12T00:03:31.429Z,28.106
2023-04-12T00:18:33.364Z,27.773
2023-04-12T00:33:35.077Z,27.577
2023-04-12T00:48:36.940Z,27.857
2023-04-12T01:03:39.182Z,27.95
2023-04-12T01:18:41.919Z,27.529
2023-04-12T01:33:46.861Z,26.697
2023-04-12T01:48:48.616Z,25.984
2023-04-12T02:03:50.535Z,26.228
2023-04-12T02:18:52.512Z,26.089
2023-04-12T02:33:54.403Z,26.125
2023-04-12T02:48:58.574Z,26.448
2023-04-12T03:04:01.403Z,26.171
2023-04-12T03:19:03.517Z,26.169
2023-04-12T03:34:05.424Z,26.061
2023-04-12T03:49:08.517Z,27.614
2023-04-12T04:04:10.488Z,27.81
2023-04-12T04:19:12.343Z,26.382
2023-04-12T04:34:14.180Z,26.835
2023-04-12T04:49:15.992Z,27.159
2023-04-12T05:04:17.942Z,27.014
2023-04-12T05:19:19.719Z,26.156
2023-04-12T05:34:21.535Z,26.184
2023-04-12T05:49:23.294Z,26.101
2023-04-12T06:04:32.059Z,25.622
2023-04-12T06:19:44.119Z,25.689
2023-04-12T06:34:45.851Z,25.996
2023-04-12T06:49:47.689Z,25.371
2023-04-12T07:04:49.473Z,25.623
2023-04-12T07:19:51.215Z,25.602
2023-04-12T07:34:53.070Z,25.015
2023-04-12T07:49:54.900Z,25.062
2023-04-12T08:04:56.656Z,25.365
2023-04-12T08:19:58.432Z,24.719
2023-04-12T08:35:00.196Z,24.378
2023-04-12T08:50:02.019Z,24.932
2023-04-12T09:05:03.969Z,25.152
2023-04-12T09:20:05.763Z,24.347
2023-04-12T09:35:07.508Z,24.392
2023-04-12T09:50:09.268Z,24.482
2023-04-12T10:05:11.128Z,25.183
2023-04-12T10:20:13.017Z,24.784
2023-04-12T10:35:14.881Z,24.194
2023-04-12T10:50:16.732Z,24.28
2023-04-12T11:05:18.541Z,24.855
2023-04-12T11:20:20.334Z,24.766
2023-04-12T11:35:22.151Z,24.69
2023-04-12T11:50:23.878Z,24.078
2023-04-12T12:05:26.194Z,24.095
2023-04-12T12:20:28.054Z,24.412
2023-04-12T12:35:29.795Z,24.97
2023-04-12T12:50:31.559Z,24.363
2023-04-12T13:05:33.304Z,23.82
2023-04-12T13:20:35.025Z,24.353
2023-04-12T13:35:36.758Z,24.419
2023-04-12T13:50:38.499Z,24.679
2023-04-12T14:05:40.299Z,23.972
2023-04-12T14:20:42.065Z,23.852
2023-04-12T14:35:43.774Z,24.233
2023-04-12T14:50:45.496Z,24.363
2023-04-12T15:05:47.225Z,23.669
2023-04-12T15:20:49.016Z,23.532
2023-04-12T15:35:50.851Z,23.84
2023-04-12T15:50:52.642Z,24.153
2023-04-12T16:05:54.770Z,24.438
2023-04-12T16:20:56.741Z,24.119
2023-04-12T16:35:58.504Z,24.378
2023-04-12T16:51:00.274Z,24.431
2023-04-12T17:06:02.081Z,24.871
2023-04-12T17:21:04.083Z,24.351
2023-04-12T17:36:11.387Z,24.957
2023-04-12T17:51:13.446Z,24.917
2023-04-12T18:06:15.231Z,25.155
2023-04-12T18:21:16.969Z,25.854
2023-04-12T18:36:18.734Z,25.898
2023-04-12T18:51:20.529Z,25.996
2023-04-12T19:06:22.368Z,26.032
2023-04-12T19:21:24.126Z,25.812
2023-04-12T19:36:25.856Z,26.558
2023-04-12T19:51:27.650Z,26.562
2023-04-12T20:06:29.412Z,26.394
2023-04-12T20:21:31.173Z,26.59
2023-04-12T20:36:32.950Z,26.478
2023-04-12T20:51:34.777Z,26.27
2023-04-12T21:06:36.576Z,26.428
2023-04-12T21:21:38.308Z,26.666
2023-04-12T21:36:40.061Z,26.769
2023-04-12T21:51:41.810Z,26.765
2023-04-12T22:06:47.897Z,26.578
2023-04-12T22:21:49.665Z,26.765
2023-04-12T22:36:51.445Z,26.328
2023-04-12T22:51:53.250Z,24.435
2023-04-12T23:06:54.972Z,25.362
2023-04-12T23:21:56.694Z,25.777
2023-04-12T23:36:58.416Z,26.001
2023-04-12T23:52:00.206Z,26.039
